createdAt,value
2023-06-05T00:00:16.707Z,5.30
2023-06-05T00:02:43.385Z,4.40
2023-06-05T00:05:10.949Z,4.50
2023-06-05T00:07:40.739Z,4.70
2023-06-05T00:10:08.037Z,4.00
2023-06-05T00:12:35.195Z,4.30
2023-06-05T00:15:02.712Z,5.00
2023-06-05T00:17:29.500Z,4.40
2023-06-05T00:19:56.439Z,4.20
2023-06-05T00:22:23.063Z,4.60
2023-06-05T00:24:49.721Z,5.70
2023-06-05T00:27:16.455Z,4.30
2023-06-05T00:29:43.120Z,5.20
2023-06-05T00:32:09.777Z,4.60
2023-06-05T00:34:36.655Z,4.20
2023-06-05T00:37:03.773Z,4.70
2023-06-05T00:39:30.411Z,5.20
2023-06-05T00:41:57.045Z,4.70
2023-06-05T00:44:23.659Z,4.50
2023-06-05T00:46:52.982Z,5.10
2023-06-05T00:49:20.087Z,4.60
2023-06-05T00:51:47.096Z,4.80
2023-06-05T00:54:14.884Z,4.90
2023-06-05T00:56:45.616Z,4.70
2023-06-05T00:59:13.654Z,4.90
2023-06-05T01:01:41.819Z,4.90
2023-06-05T01:04:08.610Z,5.30
2023-06-05T01:06:36.137Z,5.00
2023-06-05T01:09:03.640Z,4.80
2023-06-05T01:11:38.358Z,5.20
2023-06-05T01:14:23.709Z,5.00
2023-06-05T01:16:54.948Z,5.30
2023-06-05T01:19:22.331Z,5.30
2023-06-05T01:21:49.901Z,5.00
2023-06-05T01:24:18.577Z,5.30
2023-06-05T01:27:04.477Z,4.90
2023-06-05T01:29:37.285Z,4.40
2023-06-05T01:32:07.770Z,4.40
2023-06-05T01:34:38.078Z,5.80
2023-06-05T01:37:05.234Z,4.70
2023-06-05T01:39:32.256Z,4.90
2023-06-05T01:41:59.502Z,4.50
2023-06-05T01:44:27.701Z,5.20
2023-06-05T01:46:54.405Z,4.90
2023-06-05T01:49:23.043Z,5.60
2023-06-05T01:51:49.682Z,4.90
2023-06-05T01:54:17.108Z,5.00
2023-06-05T01:56:45.004Z,4.60
2023-06-05T01:59:12.307Z,5.20
2023-06-05T02:01:39.314Z,5.10
2023-06-05T02:04:06.733Z,5.10
2023-06-05T02:06:42.639Z,5.90
2023-06-05T02:09:11.685Z,5.90
2023-06-05T02:11:39.701Z,6.00
2023-06-05T02:14:10.278Z,5.60
2023-06-05T02:16:37.818Z,6.30
2023-06-05T02:19:04.895Z,5.40
2023-06-05T02:21:33.473Z,5.70
2023-06-05T02:24:04.047Z,6.00
2023-06-05T02:26:30.835Z,6.00
2023-06-05T02:28:57.749Z,5.30
2023-06-05T02:31:30.336Z,6.10
2023-06-05T02:33:57.682Z,6.50
2023-06-05T02:36:26.207Z,6.00
2023-06-05T02:38:53.585Z,5.70
2023-06-05T02:41:22.729Z,5.90
2023-06-05T02:43:49.814Z,5.80
2023-06-05T02:46:16.863Z,5.30
2023-06-05T02:48:43.974Z,5.60
2023-06-05T02:51:12.257Z,5.10
2023-06-05T02:53:39.511Z,5.20
2023-06-05T02:56:06.603Z,5.70
2023-06-05T02:58:34.956Z,5.80
2023-06-05T03:01:08.379Z,5.60
2023-06-05T03:03:38.515Z,6.50
2023-06-05T03:06:05.503Z,5.30
2023-06-05T03:08:34.634Z,6.00
2023-06-05T03:11:02.188Z,5.80
2023-06-05T03:13:29.284Z,5.70
2023-06-05T03:15:58.318Z,5.40
2023-06-05T03:18:26.310Z,6.20
2023-06-05T03:20:56.234Z,6.60
2023-06-05T03:23:28.891Z,7.30
2023-06-05T03:25:56.568Z,8.70
2023-06-05T03:28:24.173Z,9.00
2023-06-05T03:30:51.854Z,8.20
2023-06-05T03:33:19.591Z,8.20
2023-06-05T03:35:47.457Z,7.50
2023-06-05T03:38:15.015Z,7.20
2023-06-05T03:40:42.212Z,6.00
2023-06-05T03:43:11.709Z,6.80
2023-06-05T03:45:41.026Z,6.60
2023-06-05T03:48:08.214Z,6.70
2023-06-05T03:50:39.614Z,6.70
2023-06-05T03:53:10.182Z,6.50
2023-06-05T03:55:42.413Z,5.40
2023-06-05T03:58:15.122Z,5.50
2023-06-05T04:00:43.723Z,5.40
2023-06-05T04:03:12.012Z,5.90
2023-06-05T04:05:40.050Z,5.40
2023-06-05T04:08:07.308Z,4.90
2023-06-05T04:10:34.058Z,5.50
2023-06-05T04:13:00.796Z,4.80
2023-06-05T04:15:27.590Z,4.80
2023-06-05T04:17:54.743Z,4.90
2023-06-05T04:20:21.649Z,4.80
2023-06-05T04:22:48.406Z,4.60
2023-06-05T04:25:15.759Z,4.60
2023-06-05T04:27:46.700Z,4.60
2023-06-05T04:30:14.129Z,4.80
2023-06-05T04:32:42.901Z,5.10
2023-06-05T04:35:11.885Z,4.80
2023-06-05T04:37:39.429Z,4.60
2023-06-05T04:40:10.982Z,5.20
2023-06-05T04:42:39.124Z,4.90
2023-06-05T04:45:09.119Z,5.00
2023-06-05T04:47:37.766Z,5.20
2023-06-05T04:50:05.768Z,5.90
2023-06-05T04:52:34.099Z,5.00
2023-06-05T04:55:04.313Z,6.00
2023-06-05T04:57:32.530Z,5.10
2023-06-05T05:00:01.390Z,6.00
2023-06-05T05:02:29.545Z,5.20
2023-06-05T05:04:56.724Z,5.30
2023-06-05T05:07:25.375Z,5.50
2023-06-05T05:09:52.791Z,5.40
2023-06-05T05:12:20.976Z,5.00
2023-06-05T05:14:47.760Z,5.20
2023-06-05T05:17:18.281Z,5.80
2023-06-05T05:19:44.949Z,5.10
2023-06-05T05:22:12.170Z,5.70
2023-06-05T05:24:39.129Z,5.40
2023-06-05T05:27:05.945Z,5.40
2023-06-05T05:29:34.550Z,5.00
2023-06-05T05:32:01.982Z,5.00
2023-06-05T05:34:29.539Z,4.70
2023-06-05T05:36:56.707Z,5.40
2023-06-05T05:39:23.363Z,5.10
2023-06-05T05:41:50.056Z,4.20
2023-06-05T05:44:16.702Z,4.60
2023-06-05T05:46:43.337Z,4.70
2023-06-05T05:49:09.997Z,4.30
2023-06-05T05:51:36.991Z,4.70
2023-06-05T05:54:03.703Z,4.60
2023-06-05T05:56:30.419Z,4.70
2023-06-05T05:58:57.064Z,4.50
2023-06-05T06:01:24.209Z,4.60
2023-06-05T06:03:50.913Z,5.40
2023-06-05T06:06:17.683Z,4.30
2023-06-05T06:08:44.885Z,5.00
2023-06-05T06:11:11.740Z,4.60
2023-06-05T06:13:38.716Z,5.80
2023-06-05T06:16:05.456Z,4.80
2023-06-05T06:18:32.323Z,4.20
2023-06-05T06:20:59.783Z,5.00
2023-06-05T06:23:26.827Z,4.70
2023-06-05T06:25:53.541Z,4.40
2023-06-05T06:28:21.113Z,4.70
2023-06-05T06:30:48.072Z,4.20
2023-06-05T06:33:15.000Z,4.30
2023-06-05T06:35:41.684Z,4.10
2023-06-05T06:38:08.328Z,4.30
2023-06-05T06:40:35.377Z,4.60
2023-06-05T06:43:02.015Z,5.10
2023-06-05T06:45:42.027Z,4.50
2023-06-05T06:48:09.110Z,4.70
2023-06-05T06:50:36.219Z,4.90
2023-06-05T06:53:03.225Z,4.10
2023-06-05T06:55:29.927Z,4.50
2023-06-05T06:57:56.681Z,5.10
2023-06-05T07:00:24.625Z,5.20
2023-06-05T07:02:51.736Z,4.60
2023-06-05T07:05:21.139Z,4.90
2023-06-05T07:07:48.001Z,4.50
2023-06-05T07:10:14.712Z,4.80
2023-06-05T07:12:41.375Z,5.20
2023-06-05T07:15:08.350Z,4.30
2023-06-05T07:17:35.335Z,5.30
2023-06-05T07:20:02.159Z,22.00
2023-06-05T07:22:32.513Z,64.70
2023-06-05T07:24:59.766Z,49.30
2023-06-05T07:27:26.765Z,21.80
2023-06-05T07:29:54.539Z,10.50
2023-06-05T07:32:21.822Z,7.80
2023-06-05T07:34:49.356Z,8.30
2023-06-05T07:37:15.987Z,7.40
2023-06-05T07:39:42.805Z,12.40
2023-06-05T07:42:09.423Z,16.30
2023-06-05T07:44:36.198Z,7.60
2023-06-05T07:47:02.864Z,5.20
2023-06-05T07:49:35.464Z,5.60
2023-06-05T07:52:02.366Z,5.50
2023-06-05T07:54:29.121Z,5.70
2023-06-05T07:56:58.772Z,7.40
2023-06-05T07:59:29.484Z,52.00
2023-06-05T08:02:02.235Z,36.60
2023-06-05T08:04:29.171Z,56.30
2023-06-05T08:06:56.125Z,18.20
2023-06-05T08:09:23.137Z,8.80
2023-06-05T08:11:49.826Z,16.60
2023-06-05T08:14:16.519Z,8.40
2023-06-05T08:16:43.348Z,7.80
2023-06-05T08:19:10.266Z,6.90
2023-06-05T08:21:38.158Z,6.80
2023-06-05T08:24:05.024Z,6.60
2023-06-05T08:26:31.903Z,6.40
2023-06-05T08:28:58.555Z,23.10
2023-06-05T08:31:25.250Z,8.70
2023-06-05T08:33:52.433Z,14.00
2023-06-05T08:36:19.208Z,12.80
2023-06-05T08:38:45.880Z,7.70
2023-06-05T08:41:15.098Z,7.80
2023-06-05T08:43:48.280Z,7.70
2023-06-05T08:46:15.222Z,7.70
2023-06-05T08:48:51.943Z,7.00
2023-06-05T08:51:19.205Z,6.00
2023-06-05T08:54:14.298Z,6.60
2023-06-05T08:56:41.619Z,9.50
2023-06-05T08:59:08.360Z,8.20
2023-06-05T09:01:35.316Z,7.40
2023-06-05T09:04:02.866Z,11.30
2023-06-05T09:06:29.647Z,13.10
2023-06-05T09:08:56.457Z,26.60
2023-06-05T09:11:32.876Z,12.00
2023-06-05T09:14:00.337Z,10.20
2023-06-05T09:16:39.349Z,12.10
2023-06-05T09:19:07.268Z,9.40
2023-06-05T09:21:35.001Z,9.60
2023-06-05T09:24:16.048Z,6.60
2023-06-05T09:27:02.701Z,11.90
2023-06-05T09:29:31.278Z,6.30
2023-06-05T09:31:58.998Z,6.40
2023-06-05T09:34:36.839Z,4.70
2023-06-05T09:37:07.716Z,6.10
2023-06-05T09:39:35.735Z,8.00
2023-06-05T09:42:02.825Z,6.30
2023-06-05T09:44:30.258Z,11.10
2023-06-05T09:47:01.064Z,12.00
2023-06-05T09:49:46.832Z,8.80
2023-06-05T09:52:14.343Z,6.60
2023-06-05T09:54:43.375Z,14.50
2023-06-05T09:57:13.448Z,10.80
2023-06-05T09:59:50.396Z,24.30
2023-06-05T10:02:17.766Z,8.50
2023-06-05T10:04:49.313Z,6.90
2023-06-05T10:07:16.362Z,6.10
2023-06-05T10:09:44.466Z,7.10
2023-06-05T10:12:11.374Z,7.00
2023-06-05T10:14:41.673Z,5.30
2023-06-05T10:17:08.413Z,6.20
2023-06-05T10:19:35.610Z,4.50
2023-06-05T10:22:03.141Z,8.00
2023-06-05T10:24:32.601Z,6.90
2023-06-05T10:27:11.320Z,26.00
2023-06-05T10:29:56.725Z,11.60
2023-06-05T10:32:33.418Z,6.10
2023-06-05T10:35:09.442Z,13.30
2023-06-05T10:37:54.814Z,28.00
2023-06-05T10:40:21.776Z,9.00
2023-06-05T10:42:48.544Z,26.40
2023-06-05T10:45:30.469Z,18.20
2023-06-05T10:47:57.258Z,33.20
2023-06-05T10:50:26.492Z,10.30
2023-06-05T10:52:54.337Z,29.00
2023-06-05T10:55:22.195Z,17.40
2023-06-05T10:58:09.591Z,31.90
2023-06-05T11:00:36.951Z,24.70
2023-06-05T11:03:03.879Z,10.10
2023-06-05T11:05:31.117Z,24.60
2023-06-05T11:08:17.175Z,21.80
2023-06-05T11:11:02.915Z,16.90
2023-06-05T11:13:48.365Z,6.40
2023-06-05T11:16:26.422Z,5.50
2023-06-05T11:18:55.898Z,15.20
2023-06-05T11:21:22.690Z,14.80
2023-06-05T11:24:08.663Z,7.30
2023-06-05T11:26:43.760Z,8.20
2023-06-05T11:29:12.008Z,5.20
2023-06-05T11:31:38.806Z,10.10
2023-06-05T11:34:11.822Z,17.00
2023-06-05T11:36:39.502Z,19.40
2023-06-05T11:39:06.536Z,22.10
2023-06-05T11:41:33.312Z,21.50
2023-06-05T11:44:00.075Z,16.40
2023-06-05T11:46:43.321Z,13.40
2023-06-05T11:49:26.884Z,12.30
2023-06-05T11:51:53.675Z,10.70
2023-06-05T11:54:31.050Z,11.60
2023-06-05T11:56:59.504Z,15.00
2023-06-05T11:59:26.729Z,13.30
2023-06-05T12:01:55.738Z,8.40
2023-06-05T12:04:23.422Z,9.30
2023-06-05T12:06:52.447Z,13.90
2023-06-05T12:09:19.149Z,9.50
2023-06-05T12:11:46.112Z,7.40
2023-06-05T12:14:13.504Z,8.50
2023-06-05T12:16:40.946Z,11.00
2023-06-05T12:19:16.252Z,8.70
2023-06-05T12:21:43.815Z,9.60
2023-06-05T12:24:10.543Z,10.40
2023-06-05T12:26:54.936Z,9.70
2023-06-05T12:29:26.516Z,8.50
2023-06-05T12:31:53.934Z,7.60
2023-06-05T12:34:55.949Z,8.40
2023-06-05T12:37:29.184Z,12.20
2023-06-05T12:39:56.453Z,12.80
2023-06-05T12:42:23.096Z,14.20
2023-06-05T12:44:50.342Z,10.60
2023-06-05T12:47:17.071Z,12.20
2023-06-05T12:49:43.820Z,11.60
2023-06-05T12:52:10.518Z,10.90
2023-06-05T12:54:37.455Z,9.40
2023-06-05T12:57:06.800Z,10.70
2023-06-05T12:59:34.050Z,9.20
2023-06-05T13:02:00.883Z,9.90
2023-06-05T13:04:27.625Z,8.10
2023-06-05T13:06:56.274Z,8.00
2023-06-05T13:09:23.036Z,8.30
2023-06-05T13:11:49.736Z,8.60
2023-06-05T13:14:17.212Z,8.10
2023-06-05T13:16:43.978Z,6.90
2023-06-05T13:19:10.643Z,7.00
2023-06-05T13:21:37.283Z,7.30
2023-06-05T13:24:04.126Z,7.40
2023-06-05T13:26:30.780Z,7.70
2023-06-05T13:28:57.407Z,9.20
2023-06-05T13:31:24.620Z,8.30
2023-06-05T13:33:51.682Z,9.10
2023-06-05T13:36:18.334Z,9.80
2023-06-05T13:38:45.106Z,8.00
2023-06-05T13:41:11.768Z,9.10
2023-06-05T13:43:38.705Z,9.10
2023-06-05T13:46:05.503Z,8.10
2023-06-05T13:48:32.179Z,7.40
2023-06-05T13:50:58.782Z,8.50
2023-06-05T13:53:25.485Z,8.50
2023-06-05T13:55:52.153Z,7.50
2023-06-05T13:58:18.760Z,7.60
2023-06-05T14:00:45.533Z,6.80
2023-06-05T14:03:13.691Z,8.40
2023-06-05T14:05:40.552Z,6.80
2023-06-05T14:08:08.451Z,6.30
2023-06-05T14:10:37.269Z,6.00
2023-06-05T14:13:15.822Z,5.90
2023-06-05T14:18:29.372Z,5.90
2023-06-05T14:20:59.208Z,5.50
2023-06-05T14:23:29.826Z,5.80
2023-06-05T14:25:59.838Z,5.10
2023-06-05T14:28:26.945Z,5.80
2023-06-05T14:30:53.641Z,5.60
2023-06-05T14:33:20.464Z,4.90
2023-06-05T14:35:47.300Z,5.70
2023-06-05T14:38:14.229Z,5.90
2023-06-05T14:40:42.162Z,5.30
2023-06-05T14:43:09.071Z,5.30
2023-06-05T14:45:36.405Z,5.20
2023-06-05T14:48:03.162Z,5.50
2023-06-05T14:50:30.616Z,5.20
2023-06-05T14:52:57.258Z,4.20
2023-06-05T14:55:23.914Z,5.30
2023-06-05T14:57:50.680Z,5.00
2023-06-05T15:00:17.569Z,5.50
2023-06-05T15:02:44.287Z,4.70
2023-06-05T15:05:11.110Z,4.80
2023-06-05T15:07:41.645Z,3.80
2023-06-05T15:10:09.912Z,3.60
2023-06-05T15:12:37.331Z,4.10
2023-06-05T15:15:18.416Z,4.00
2023-06-05T15:17:45.884Z,3.70
2023-06-05T15:20:13.012Z,3.40
2023-06-05T15:22:40.420Z,3.80
2023-06-05T15:25:07.878Z,3.70
2023-06-05T15:27:36.131Z,4.60
2023-06-05T15:30:03.005Z,3.80
2023-06-05T15:32:29.936Z,4.10
2023-06-05T15:34:56.738Z,3.90
2023-06-05T15:37:26.549Z,5.30
2023-06-05T15:39:53.689Z,4.00
2023-06-05T15:42:28.264Z,4.40
2023-06-05T15:45:06.472Z,4.50
2023-06-05T15:47:33.131Z,3.40
2023-06-05T15:50:00.634Z,3.30
2023-06-05T15:52:30.796Z,3.90
2023-06-05T15:55:01.781Z,4.00
2023-06-05T15:57:28.831Z,4.10
2023-06-05T15:59:55.466Z,4.00
2023-06-05T16:02:22.152Z,4.70
2023-06-05T16:04:49.430Z,3.50
2023-06-05T16:07:17.451Z,6.50
2023-06-05T16:09:44.703Z,7.30
2023-06-05T16:12:13.196Z,5.90
2023-06-05T16:14:39.967Z,4.90
2023-06-05T16:17:06.809Z,17.70
2023-06-05T16:19:34.882Z,12.10
2023-06-05T16:22:02.110Z,6.50
2023-06-05T16:24:31.047Z,4.50
2023-06-05T16:26:58.363Z,4.20
2023-06-05T16:29:25.258Z,4.40
2023-06-05T16:31:51.992Z,3.90
2023-06-05T16:34:18.763Z,3.60
2023-06-05T16:36:45.678Z,3.00
2023-06-05T16:39:14.691Z,3.70
2023-06-05T16:41:41.775Z,6.20
2023-06-05T16:44:10.878Z,4.00
2023-06-05T16:46:37.870Z,3.30
2023-06-05T16:49:04.727Z,4.40
2023-06-05T16:51:31.478Z,3.90
2023-06-05T16:53:59.279Z,4.20
2023-06-05T16:56:26.748Z,5.30
2023-06-05T16:58:53.845Z,4.60
2023-06-05T17:01:22.761Z,3.30
2023-06-05T17:03:52.819Z,2.70
2023-06-05T17:06:20.058Z,2.60
2023-06-05T17:08:47.283Z,3.30
2023-06-05T17:11:14.315Z,3.60
2023-06-05T17:13:41.056Z,3.10
2023-06-05T17:16:08.042Z,4.10
2023-06-05T17:18:34.729Z,9.30
2023-06-05T17:21:01.697Z,6.20
2023-06-05T17:23:29.451Z,4.50
2023-06-05T17:25:56.187Z,3.90
2023-06-05T17:28:22.979Z,3.60
2023-06-05T17:30:50.404Z,3.50
2023-06-05T17:33:18.980Z,4.00
2023-06-05T17:35:45.763Z,4.60
2023-06-05T17:38:12.494Z,4.50
2023-06-05T17:40:42.229Z,5.50
2023-06-05T17:43:09.001Z,5.00
2023-06-05T17:45:35.856Z,9.50
2023-06-05T17:48:02.757Z,7.60
2023-06-05T17:50:29.775Z,5.40
2023-06-05T17:52:56.795Z,5.60
2023-06-05T17:55:23.685Z,6.10
2023-06-05T17:57:53.827Z,4.70
2023-06-05T18:00:23.561Z,5.30
2023-06-05T18:02:51.005Z,4.10
2023-06-05T18:05:18.190Z,5.60
2023-06-05T18:07:44.885Z,7.60
2023-06-05T18:10:11.731Z,4.80
2023-06-05T18:12:40.205Z,4.70
2023-06-05T18:15:07.467Z,5.90
2023-06-05T18:17:34.130Z,6.00
2023-06-05T18:20:00.980Z,6.50
2023-06-05T18:22:28.090Z,6.40
2023-06-05T18:24:54.788Z,6.00
2023-06-05T18:27:21.454Z,5.60
2023-06-05T18:29:48.265Z,5.50
2023-06-05T18:32:16.332Z,4.90
2023-06-05T18:34:43.143Z,5.10
2023-06-05T18:37:09.796Z,5.50
2023-06-05T18:39:36.680Z,5.10
2023-06-05T18:42:03.704Z,4.50
2023-06-05T18:44:30.515Z,5.30
2023-06-05T18:46:57.137Z,5.50
2023-06-05T18:49:23.917Z,5.60
2023-06-05T18:51:50.654Z,4.90
2023-06-05T18:54:18.713Z,6.00
2023-06-05T18:56:47.466Z,5.60
2023-06-05T18:59:16.062Z,5.70
2023-06-05T19:01:43.063Z,5.70
2023-06-05T19:04:09.857Z,5.60
2023-06-05T19:06:37.562Z,6.60
2023-06-05T19:09:04.967Z,7.40
2023-06-05T19:11:33.474Z,7.20
2023-06-05T19:14:00.258Z,7.10
2023-06-05T19:16:26.947Z,7.60
2023-06-05T19:18:53.618Z,7.80
2023-06-05T19:21:20.769Z,7.10
2023-06-05T19:23:47.646Z,7.90
2023-06-05T19:26:14.354Z,6.60
2023-06-05T19:28:41.004Z,7.30
2023-06-05T19:31:07.704Z,11.30
2023-06-05T19:33:35.396Z,12.50
2023-06-05T19:36:02.115Z,15.80
2023-06-05T19:38:28.774Z,12.50
2023-06-05T19:40:57.054Z,11.50
2023-06-05T19:43:23.722Z,8.80
2023-06-05T19:45:50.598Z,8.20
2023-06-05T19:48:17.312Z,6.70
2023-06-05T19:50:44.020Z,8.00
2023-06-05T19:53:11.204Z,7.50
2023-06-05T19:55:39.163Z,7.40
2023-06-05T19:58:05.856Z,6.70
2023-06-05T20:00:32.598Z,7.40
2023-06-05T20:02:59.320Z,7.70
2023-06-05T20:05:27.376Z,8.40
2023-06-05T20:07:54.076Z,7.70
2023-06-05T20:10:20.778Z,7.30
2023-06-05T20:12:47.462Z,8.20
2023-06-05T20:15:14.813Z,7.50
2023-06-05T20:17:41.703Z,8.30
2023-06-05T20:20:09.357Z,8.00
2023-06-05T20:22:36.115Z,7.80
2023-06-05T20:25:05.635Z,6.50
2023-06-05T20:27:32.784Z,7.20
2023-06-05T20:29:59.662Z,7.90
2023-06-05T20:32:26.368Z,7.50
2023-06-05T20:34:53.011Z,7.50
2023-06-05T20:37:19.685Z,7.70
2023-06-05T20:39:47.185Z,7.60
2023-06-05T20:42:15.399Z,8.30
2023-06-05T20:44:42.301Z,7.40
2023-06-05T20:47:09.305Z,7.50
2023-06-05T20:49:38.996Z,7.00
2023-06-05T20:52:12.064Z,7.60
2023-06-05T20:54:39.855Z,7.70
2023-06-05T20:57:12.486Z,6.70
2023-06-05T20:59:39.478Z,7.30
2023-06-05T21:02:06.814Z,6.60
2023-06-05T21:04:33.577Z,6.60
2023-06-05T21:07:00.187Z,7.60
2023-06-05T21:09:27.257Z,7.40
2023-06-05T21:11:53.957Z,8.10
2023-06-05T21:14:20.654Z,8.10
2023-06-05T21:16:47.359Z,8.10
2023-06-05T21:19:14.085Z,7.70
2023-06-05T21:21:40.697Z,7.40
2023-06-05T21:24:07.379Z,8.00
2023-06-05T21:26:34.088Z,9.50
2023-06-05T21:29:00.728Z,10.70
2023-06-05T21:31:27.393Z,9.10
2023-06-05T21:33:54.060Z,8.30
2023-06-05T21:36:21.023Z,8.30
2023-06-05T21:38:47.599Z,10.10
2023-06-05T21:41:14.548Z,8.70
2023-06-05T21:43:41.178Z,8.50
2023-06-05T21:46:08.585Z,8.40
2023-06-05T21:48:35.274Z,8.10
2023-06-05T21:51:01.928Z,8.30
2023-06-05T21:53:28.542Z,8.20
2023-06-05T21:55:55.184Z,7.30
2023-06-05T21:58:21.772Z,8.00
2023-06-05T22:00:48.849Z,8.40
2023-06-05T22:03:15.651Z,7.50
2023-06-05T22:05:42.875Z,7.70
2023-06-05T22:08:09.550Z,7.60
2023-06-05T22:10:36.260Z,8.20
2023-06-05T22:13:03.328Z,8.10
2023-06-05T22:15:30.118Z,11.70
2023-06-05T22:17:57.533Z,13.60
2023-06-05T22:20:27.132Z,12.20
2023-06-05T22:22:53.982Z,11.30
2023-06-05T22:25:20.643Z,13.00
2023-06-05T22:27:47.407Z,13.40
2023-06-05T22:30:14.059Z,12.60
2023-06-05T22:32:42.257Z,13.90
2023-06-05T22:35:09.197Z,13.30
2023-06-05T22:37:36.278Z,12.70
2023-06-05T22:40:06.269Z,12.20
2023-06-05T22:42:33.025Z,11.50
2023-06-05T22:44:59.632Z,11.20
2023-06-05T22:47:27.684Z,12.10
2023-06-05T22:49:54.833Z,12.10
2023-06-05T22:52:22.225Z,11.90
2023-06-05T22:54:49.020Z,11.30
2023-06-05T22:57:15.644Z,11.00
2023-06-05T22:59:42.272Z,12.40
2023-06-05T23:02:08.969Z,11.40
2023-06-05T23:04:46.087Z,11.00
2023-06-05T23:07:12.858Z,10.20
2023-06-05T23:09:39.853Z,9.40
2023-06-05T23:12:06.708Z,10.00
2023-06-05T23:14:34.557Z,8.50
2023-06-05T23:17:01.521Z,9.50
2023-06-05T23:19:28.901Z,8.40
2023-06-05T23:21:55.691Z,8.40
2023-06-05T23:24:22.712Z,7.30
2023-06-05T23:26:49.388Z,7.90
2023-06-05T23:29:16.114Z,7.70
2023-06-05T23:31:46.418Z,7.30
2023-06-05T23:34:13.917Z,8.20
2023-06-05T23:36:43.036Z,8.00
2023-06-05T23:39:13.088Z,8.60
2023-06-05T23:41:41.046Z,7.00
2023-06-05T23:44:07.687Z,7.30
2023-06-05T23:46:34.332Z,7.10
2023-06-05T23:49:01.070Z,7.40
2023-06-05T23:51:32.809Z,7.60
2023-06-05T23:53:59.863Z,7.00
2023-06-05T23:56:27.559Z,7.00
2023-06-05T23:58:54.322Z,6.70
